Laman API Video Percuma Terbaik

AVDBAPI.COM

Cari katalog, semak rekod, dan salin URL API bersih daripada papan pemuka pantas.

Telegram Join Our Telegram Community for Updates!
Today
0
Kemaskini Hari Ini
Censored
314175
Censored Videos
Total
474406
Total Videos

Senarai Video

Rekod terkini disusun mengikut masa kemas kini.

ID Nama CODE Kategori Dikemaskini API
272223 090917-01 Anak Perempuan Didisiplin Oleh Ibu ~ Sakit Tapi Sedap ~ 090917-01 Tanpa sensor 2025-08-30 00:08:50 API
272222 H0930-ORI1501 Yuma Fuplaya, Wanita 30 Tahun H0930-ORI1501 Tanpa sensor 2025-08-30 00:08:40 API
272221 040117-056 Pakar Selfie! Wanita Matang Menayang Masturbasi yang Mengghairahkan 040117-056 Tanpa sensor 2025-08-30 00:08:30 API
272220 120518-805 Tidak Diterbitkan ~ Dimensi Lain: Mengentot Dengan Tetek Minyak Nuru Nuru 2 ~ Harua Narimiya, Serina Fukami, Mikan Kururugi, Rei Kitajima 120518-805 Tanpa sensor 2025-08-30 00:08:20 API
272219 HEYZO-1886 Saya pakai baju renang nakal untuk gadis amatur saya! Vol.2 HEYZO-1886 Tanpa sensor 2025-08-30 00:08:10 API
272218 K1226 Wanita Mangsa K1226 Tanpa sensor 2025-08-30 00:08:00 API
272217 H4610-KI190506 Permainan Pelacur Berusia 20 Tahun H4610-KI190506 Tanpa sensor 2025-08-30 00:07:50 API
272216 BOBB-392 Malaikat Berpayudara Besar Cup I Berbaju Putih: Rahsia Menyusu yang Bermula dengan Panggilan Jururawat - Rimu Yumino Box 2 BOBB-392 Mosaik 2025-08-30 00:07:40 API
272215 091417-01 Saya tak tahu rasa sedap tu macam mana! Tolong ajarkan saya 091417-01 Tanpa sensor 2025-08-30 00:07:30 API
272214 040417-057 Isteri Berkahwin Mengidam di Rumah ~ Masturbasi di Sebelah Suami Sudah Menjadi Rutin ~ 040417-057 Tanpa sensor 2025-08-30 00:07:20 API
272213 120718-806 Nana Ueyama ditiduri bos mabuk di pejabat yang kosong 120718-806 Tanpa sensor 2025-08-30 00:07:10 API
272212 C0930-HITOZUMA1165 Ayumi Mito Wanita Cantik Berusia 27 Tahun C0930-HITOZUMA1165 Tanpa sensor 2025-08-30 00:07:00 API
272211 HEYZO-1887 Nikmat dengan urutan erotik! ~ Bersama Yui Misaki ~ HEYZO-1887 Tanpa sensor 2025-08-30 00:06:50 API
272210 K1227 Wanita Mangsa K1227 Tanpa sensor 2025-08-30 00:06:40 API
272209 040617-059 Wanita Matang Bermain Api: Bekas Atlet dengan Sensitiviti Luar Biasa 040617-059 Tanpa sensor 2025-08-30 00:06:30 API
272208 091917-01 Versi Pemuliharaan Kekal! Video Yang Belum Pernah Diterbitkan 091917-01 Tanpa sensor 2025-08-30 00:06:20 API
272207 HEYZO-1889 Gadis amatur yang dicukur habis dikongkek kaw-kaw! HEYZO-1889 Tanpa sensor 2025-08-30 00:06:10 API
272206 C0930-HITOZUMA1166 Ayumi Mito Wanita Cantik Berusia 27 Tahun C0930-HITOZUMA1166 Tanpa sensor 2025-08-30 00:06:00 API
272205 120818-807 Kisah Awahime Hebat Vol.63 ~ Perkhidmatan latihan berlendir satu malam sahaja daripada Santa ~ Iroha Suzumura 120818-807 Tanpa sensor 2025-08-30 00:05:50 API
272204 040817-061 Pandangan manis yang mencairkan lelaki - Apa pun yang anda buat, dia tetap merenung kamera 040817-061 Tanpa sensor 2025-08-30 00:05:40 API
272202 C0930-HITOZUMA1167 Maho Katsuragi, 25 Tahun C0930-HITOZUMA1167 Tanpa sensor 2025-08-30 00:05:20 API
272201 091817-01 Saya buat penggambaran AV di rumah 091817-01 Tanpa sensor 2025-08-30 00:05:10 API
272200 121118-808 Syurga Payudara Besar, Kenikmatan Licin Gadis China 121118-808 Tanpa sensor 2025-08-30 00:05:00 API
272199 H4610-KI190507 Yukari Kitagawa Gadis 20 Tahun Yang Menggiurkan H4610-KI190507 Tanpa sensor 2025-08-30 00:04:50 API
272198 FC2-PPV-1523402 [Diskaun 1000 yen untuk 100 orang pertama] Suzuna, 22 tahun, facial! Fikiran ghairah office lady yang mirip Arin Momoclo! Hasil cubaan pertama sugar dating, aksi facial penuh menghadap kamera! FC2-PPV-1523402 Tanpa sensor 2025-08-30 00:04:40 API
272197 041317-063 Wanita Matang Tanpa Solekan ~ Kedutan Nasolabial Usia 40 ~ 041317-063 Tanpa sensor 2025-08-30 00:04:30 API
272196 K1228 Wanita Mangsa K1228 Tanpa sensor 2025-08-30 00:04:20 API
272195 C0930-HITOZUMA1168 Maho Katsuragi Umur 25 Tahun C0930-HITOZUMA1168 Tanpa sensor 2025-08-30 00:04:10 API
272194 092217-01 Tuan! Macam mana batang ni? 092217-01 Tanpa sensor 2025-08-30 00:04:00 API
272193 H4610-KI190511 Selfie Masturbasi Yang Mengghairahkan H4610-KI190511 Tanpa sensor 2025-08-30 00:03:50 API
272192 FC2-PPV-1521546 [Tanpa Sensor] [Kebocoran Pertama] Iroha Narimiya [Perlu Dipadamkan] Kerja bocor dari pengeluar tertentu ① [Termasuk ZIP] FC2-PPV-1521546 Tanpa sensor 2025-08-30 00:03:40 API
272191 121218-809 Buku Gambar Puki Yui Kawagoe Vol. 2 121218-809 Tanpa sensor 2025-08-30 00:03:30 API
272189 HEYZO-1890 Khemak office lady yang ghairah dengan celah kangkang basah di pejabat! HEYZO-1890 Tanpa sensor 2025-08-30 00:03:10 API
272188 041517-065 Ibu Bekerja Tempatan 041517-065 Tanpa sensor 2025-08-30 00:03:00 API
272187 H4610-KI190512 Kobe Madoka, gadis 21 tahun yang menggoda H4610-KI190512 Tanpa sensor 2025-08-30 00:02:50 API
272186 C0930-HITOZUMA1169 Gadis Cantik Mika Ariura Berusia 23 Tahun C0930-HITOZUMA1169 Tanpa sensor 2025-08-30 00:02:40 API
272185 SCUTE-1237 Rina 2 SCUTE-1237 Amatur 2025-08-30 00:02:30 API
272184 K1230 Wanita Mangsa - K1230 Tanpa sensor 2025-08-30 00:02:20 API
272183 FC2-PPV-4314125 [Tiada Jualan Semula] [Kuantiti Terhad] Kecantikan Mutlak Tsubasa-chan, 18 tahun! 2 tembakan mani pada badannya! Saya buat dia minum mani itu FC2-PPV-4314125 Tanpa sensor 2025-08-30 00:02:10 API
272182 121318-001 Puting Masokis Yang Terus Diusik Hingga Menjadi Keras 121318-001 Tanpa sensor 2025-08-30 00:02:00 API
272181 HEYZO-1892 Isteri Muda Ketagih Mani HEYZO-1892 Tanpa sensor 2025-08-30 00:01:50 API
272180 092317-01 Si Kecil yang Nakal dan Menggoda 092317-01 Tanpa sensor 2025-08-30 00:01:40 API
272179 H4610-ORI1687 Miki, gadis pantai 20 tahun yang seksi H4610-ORI1687 Tanpa sensor 2025-08-30 00:01:30 API
272178 K1229 Wanita Mangsa K1229 Tanpa sensor 2025-08-30 00:01:20 API
272177 C0930-HITOZUMA1170 Wanita Cantik Konomi Takashita Berusia 28 Tahun C0930-HITOZUMA1170 Tanpa sensor 2025-08-30 00:01:10 API
272176 121418-810 Minum Eloy GP ~ Santa mabuk yang ghairah apabila kena pancut dalam faraj ~ Chiaki Hidaka 121418-810 Tanpa sensor 2025-08-30 00:01:00 API
272175 FC2-PPV-4397323 [Tanpa Sensor x Rakaman Peribadi] Lawatan mengejut ke rumah isteri orang, Ai 8! Walaupun suami dan anak perempuannya ada di rumah, dia tetap kena didik tanpa belas kasihan! Sambil kena kangkang dalam posisi cowgirl berpeluh, suaminya FC2-PPV-4397323 Tanpa sensor 2025-08-30 00:00:50 API
272174 041817-066 Morio berseronok habis 041817-066 Tanpa sensor 2025-08-30 00:00:40 API
272173 H4610-KI190514 Sayaka Ikeda Gadis 22 Tahun H4610-KI190514 Tanpa sensor 2025-08-30 00:00:30 API
272172 HEYZO-1894 Saya akan berikan pai kepada anda bersama Sakura Kirishima! HEYZO-1894 Tanpa sensor 2025-08-30 00:00:20 API